createdAt,value
2023-04-16T00:00:07.872Z,94.19
2023-04-16T00:01:14.984Z,94.07
2023-04-16T00:02:16.568Z,94.33
2023-04-16T00:03:20.931Z,94.39
2023-04-16T00:04:22.596Z,94.26
2023-04-16T00:05:24.229Z,94.11
2023-04-16T00:06:25.873Z,93.99
2023-04-16T00:07:27.292Z,93.96
2023-04-16T00:08:31.186Z,93.97
2023-04-16T00:09:32.770Z,94.22
2023-04-16T00:10:37.164Z,94.06
2023-04-16T00:11:38.692Z,93.77
2023-04-16T00:12:40.459Z,93.68
2023-04-16T00:13:42.139Z,93.69
2023-04-16T00:14:43.897Z,93.95
2023-04-16T00:15:45.466Z,93.49
2023-04-16T00:16:47.144Z,93.66
2023-04-16T00:17:48.851Z,93.77
2023-04-16T00:18:55.596Z,93.94
2023-04-16T00:19:57.142Z,93.70
2023-04-16T00:21:00.971Z,93.45
2023-04-16T00:22:02.523Z,93.36
2023-04-16T00:23:04.120Z,93.38
2023-04-16T00:24:05.876Z,93.14
2023-04-16T00:25:07.552Z,93.31
2023-04-16T00:26:09.452Z,93.30
2023-04-16T00:27:11.229Z,93.29
2023-04-16T00:28:12.706Z,93.32
2023-04-16T00:29:16.273Z,93.29
2023-04-16T00:30:17.749Z,93.21
2023-04-16T00:31:27.938Z,93.16
2023-04-16T00:32:31.093Z,93.04
2023-04-16T00:33:32.736Z,92.79
2023-04-16T00:34:35.586Z,92.93
2023-04-16T00:35:37.155Z,92.84
2023-04-16T00:36:40.953Z,92.69
2023-04-16T00:37:42.370Z,92.44
2023-04-16T00:38:43.825Z,92.41
2023-04-16T00:39:49.990Z,92.29
2023-04-16T00:40:51.488Z,92.33
2023-04-16T00:41:52.909Z,92.15
2023-04-16T00:42:54.610Z,92.05
2023-04-16T00:43:56.334Z,91.93
2023-04-16T00:44:57.741Z,91.84
2023-04-16T00:45:59.551Z,91.97
2023-04-16T00:47:04.021Z,91.69
2023-04-16T00:48:05.904Z,91.60
2023-04-16T00:49:07.735Z,91.94
2023-04-16T00:50:11.896Z,91.55
2023-04-16T00:51:13.515Z,91.80
2023-04-16T00:52:15.869Z,91.87
2023-04-16T00:53:17.520Z,91.69
2023-04-16T00:54:19.560Z,91.60
2023-04-16T00:55:21.466Z,91.52
2023-04-16T00:56:24.512Z,91.77
2023-04-16T00:57:26.995Z,91.64
2023-04-16T00:58:32.116Z,91.60
2023-04-16T00:59:33.727Z,91.38
2023-04-16T01:00:35.423Z,91.29
2023-04-16T01:01:37.144Z,91.27
2023-04-16T01:02:39.309Z,91.29
2023-04-16T01:03:43.808Z,91.45
2023-04-16T01:04:49.771Z,91.29
2023-04-16T01:05:51.569Z,91.17
2023-04-16T01:06:53.159Z,91.25
2023-04-16T01:07:58.482Z,91.16
2023-04-16T01:09:02.288Z,91.08
2023-04-16T01:10:04.142Z,91.11
2023-04-16T01:11:06.058Z,91.17
2023-04-16T01:12:07.640Z,91.14
2023-04-16T01:13:09.756Z,90.80
2023-04-16T01:14:11.898Z,90.64
2023-04-16T01:15:13.410Z,90.74
2023-04-16T01:16:16.087Z,90.72
2023-04-16T01:17:17.595Z,91.02
2023-04-16T01:18:20.394Z,90.96
2023-04-16T01:19:22.103Z,91.01
2023-04-16T01:20:23.709Z,91.03
2023-04-16T01:21:28.189Z,91.05
2023-04-16T01:22:30.130Z,91.12
2023-04-16T01:23:31.711Z,91.08
2023-04-16T01:24:35.688Z,90.95
2023-04-16T01:25:37.688Z,91.08
2023-04-16T01:26:39.456Z,91.27
2023-04-16T01:27:41.675Z,91.16
2023-04-16T01:28:45.844Z,91.18
2023-04-16T01:29:47.445Z,91.36
2023-04-16T01:30:53.696Z,91.18
2023-04-16T01:32:15.775Z,91.30
2023-04-16T01:33:19.038Z,91.11
2023-04-16T01:34:20.732Z,91.10
2023-04-16T01:35:22.288Z,91.37
2023-04-16T01:36:26.899Z,91.18
2023-04-16T01:37:29.814Z,91.30
2023-04-16T01:38:31.364Z,91.38
2023-04-16T01:39:33.722Z,91.32
2023-04-16T01:40:36.371Z,91.35
2023-04-16T01:41:37.971Z,91.56
2023-04-16T01:42:39.613Z,91.67
2023-04-16T01:43:42.703Z,91.44
2023-04-16T01:44:44.572Z,91.44
2023-04-16T01:45:46.263Z,91.22
2023-04-16T01:46:48.035Z,91.28
2023-04-16T01:47:52.435Z,91.48
2023-04-16T01:48:57.458Z,91.26
2023-04-16T01:49:59.692Z,91.51
2023-04-16T01:51:01.313Z,91.64
2023-04-16T01:52:03.045Z,91.59
2023-04-16T01:53:05.281Z,91.60
2023-04-16T01:54:06.900Z,91.60
2023-04-16T01:55:08.617Z,91.63
2023-04-16T01:56:10.370Z,91.54
2023-04-16T01:57:11.958Z,91.30
2023-04-16T01:58:14.833Z,91.43
2023-04-16T01:59:16.971Z,91.48
2023-04-16T02:00:18.696Z,91.63
2023-04-16T02:01:20.527Z,91.65
2023-04-16T02:02:28.188Z,91.47
2023-04-16T02:03:31.387Z,91.48
2023-04-16T02:04:33.400Z,91.46
2023-04-16T02:05:35.456Z,91.31
2023-04-16T02:06:37.279Z,91.29
2023-04-16T02:07:38.802Z,91.40
2023-04-16T02:08:41.613Z,91.57
2023-04-16T02:09:43.348Z,91.49
2023-04-16T02:10:47.893Z,91.56
2023-04-16T02:11:50.279Z,91.34
2023-04-16T02:12:52.201Z,91.43
2023-04-16T02:13:53.847Z,91.42
2023-04-16T02:14:55.788Z,91.32
2023-04-16T02:16:00.219Z,91.24
2023-04-16T02:17:24.989Z,91.20
2023-04-16T02:18:40.241Z,91.29
2023-04-16T02:19:41.830Z,91.42
2023-04-16T02:20:46.047Z,91.39
2023-04-16T02:21:48.537Z,91.27
2023-04-16T02:22:50.993Z,91.17
2023-04-16T02:23:55.271Z,91.39
2023-04-16T02:25:01.746Z,91.14
2023-04-16T02:26:03.744Z,91.16
2023-04-16T02:27:05.662Z,91.22
2023-04-16T02:28:08.539Z,91.22
2023-04-16T02:29:13.032Z,91.29
2023-04-16T02:30:18.913Z,91.14
2023-04-16T02:31:22.549Z,91.36
2023-04-16T02:32:24.665Z,91.12
2023-04-16T02:33:26.765Z,91.23
2023-04-16T02:34:36.426Z,91.26
2023-04-16T02:35:38.569Z,91.26
2023-04-16T02:36:40.511Z,91.26
2023-04-16T02:37:41.989Z,91.39
2023-04-16T02:38:45.851Z,91.15
2023-04-16T02:39:47.500Z,91.56
2023-04-16T02:40:48.956Z,91.26
2023-04-16T02:41:53.213Z,91.07
2023-04-16T02:42:55.721Z,90.93
2023-04-16T02:43:57.332Z,90.98
2023-04-16T02:44:59.002Z,90.97
2023-04-16T02:46:00.785Z,91.21
2023-04-16T02:47:02.380Z,91.37
2023-04-16T02:48:04.083Z,91.29
2023-04-16T02:49:05.778Z,91.33
2023-04-16T02:50:07.741Z,91.34
2023-04-16T02:51:09.413Z,91.26
2023-04-16T02:52:10.847Z,91.34
2023-04-16T02:53:12.285Z,91.31
2023-04-16T02:54:13.711Z,91.35
2023-04-16T02:55:16.929Z,91.25
2023-04-16T02:56:18.356Z,91.39
2023-04-16T02:57:20.191Z,91.11
2023-04-16T02:58:22.679Z,91.29
2023-04-16T02:59:24.402Z,91.44
2023-04-16T03:00:26.143Z,91.56
2023-04-16T03:01:31.013Z,91.43
2023-04-16T03:02:32.728Z,91.80
2023-04-16T03:03:34.548Z,91.60
2023-04-16T03:04:36.137Z,91.54
2023-04-16T03:05:40.170Z,91.52
2023-04-16T03:06:41.967Z,91.77
2023-04-16T03:07:43.575Z,91.89
2023-04-16T03:08:45.617Z,91.89
2023-04-16T03:09:47.167Z,91.82
2023-04-16T03:10:48.625Z,91.88
2023-04-16T03:11:50.369Z,91.70
2023-04-16T03:12:51.819Z,91.71
2023-04-16T03:13:53.811Z,91.74
2023-04-16T03:14:55.445Z,91.73
2023-04-16T03:15:56.906Z,91.68
2023-04-16T03:16:59.618Z,91.56
2023-04-16T03:18:01.194Z,91.36
2023-04-16T03:19:03.680Z,91.26
2023-04-16T03:20:09.235Z,91.35
2023-04-16T03:21:10.731Z,91.41
2023-04-16T03:22:15.042Z,91.51
2023-04-16T03:23:16.727Z,91.31
2023-04-16T03:24:18.999Z,91.35
2023-04-16T03:25:26.184Z,91.41
2023-04-16T03:26:27.766Z,91.31
2023-04-16T03:27:30.442Z,91.38
2023-04-16T03:28:32.211Z,91.64
2023-04-16T03:29:36.229Z,91.79
2023-04-16T03:30:38.584Z,91.72
2023-04-16T03:31:41.611Z,91.49
2023-04-16T03:32:43.246Z,91.69
2023-04-16T03:33:45.847Z,91.46
2023-04-16T03:34:50.212Z,91.48
2023-04-16T03:35:58.570Z,91.55
2023-04-16T03:37:05.747Z,91.99
2023-04-16T03:38:07.445Z,91.83
2023-04-16T03:39:12.433Z,91.76
2023-04-16T03:40:14.513Z,91.90
2023-04-16T03:41:17.043Z,91.70
2023-04-16T03:42:18.715Z,92.10
2023-04-16T03:43:20.753Z,92.12
2023-04-16T03:44:25.054Z,91.91
2023-04-16T03:45:26.585Z,92.07
2023-04-16T03:46:28.309Z,91.86
2023-04-16T03:47:30.053Z,91.89
2023-04-16T03:48:35.708Z,92.17
2023-04-16T03:49:37.203Z,92.11
2023-04-16T03:50:38.799Z,92.43
2023-04-16T03:51:42.812Z,92.62
2023-04-16T03:52:45.037Z,92.65
2023-04-16T03:53:46.890Z,92.42
2023-04-16T03:54:49.748Z,92.50
2023-04-16T03:56:02.425Z,92.48
2023-04-16T03:57:04.592Z,92.30
2023-04-16T03:58:06.827Z,92.59
2023-04-16T03:59:09.385Z,92.60
2023-04-16T04:00:11.472Z,92.58
2023-04-16T04:01:16.359Z,92.44
2023-04-16T04:02:17.993Z,92.46
2023-04-16T04:03:20.208Z,92.36
2023-04-16T04:04:24.081Z,92.50
2023-04-16T04:05:26.042Z,92.56
2023-04-16T04:06:27.576Z,92.41
2023-04-16T04:07:29.454Z,92.51
2023-04-16T04:08:32.145Z,92.52
2023-04-16T04:09:34.187Z,92.44
2023-04-16T04:10:38.027Z,92.33
2023-04-16T04:11:40.933Z,92.37
2023-04-16T04:12:42.750Z,92.32
2023-04-16T04:13:44.568Z,92.23
2023-04-16T04:14:46.175Z,92.39
2023-04-16T04:15:47.613Z,91.93
2023-04-16T04:16:51.474Z,92.04
2023-04-16T04:17:53.329Z,91.88
2023-04-16T04:18:55.645Z,91.98
2023-04-16T04:20:01.190Z,91.85
2023-04-16T04:21:06.093Z,91.71
2023-04-16T04:22:08.467Z,91.82
2023-04-16T04:23:12.105Z,91.84
2023-04-16T04:24:13.676Z,91.55
2023-04-16T04:25:15.490Z,91.45
2023-04-16T04:26:18.884Z,91.63
2023-04-16T04:27:20.778Z,91.82
2023-04-16T04:28:22.450Z,91.72
2023-04-16T04:29:24.020Z,91.51
2023-04-16T04:30:25.926Z,91.50
2023-04-16T04:31:29.030Z,91.38
2023-04-16T04:32:31.357Z,91.36
2023-04-16T04:33:33.433Z,91.49
2023-04-16T04:34:35.351Z,91.18
2023-04-16T04:35:37.521Z,91.29
2023-04-16T04:36:39.169Z,91.28
2023-04-16T04:37:41.029Z,90.90
2023-04-16T04:38:48.819Z,91.21
2023-04-16T04:39:50.588Z,91.09
2023-04-16T04:40:52.914Z,91.20
2023-04-16T04:41:57.337Z,91.17
2023-04-16T04:42:58.972Z,91.15
2023-04-16T04:44:00.817Z,90.88
2023-04-16T04:45:02.396Z,91.37
2023-04-16T04:46:06.483Z,91.42
2023-04-16T04:47:08.496Z,91.36
2023-04-16T04:48:10.237Z,91.21
2023-04-16T04:49:12.158Z,91.37
2023-04-16T04:50:13.738Z,91.08
2023-04-16T04:51:16.224Z,91.28
2023-04-16T04:52:20.761Z,91.08
2023-04-16T04:53:22.662Z,91.62
2023-04-16T04:54:24.441Z,91.50
2023-04-16T04:55:28.246Z,92.19
2023-04-16T04:56:30.673Z,92.00
2023-04-16T04:57:32.191Z,92.03
2023-04-16T04:58:34.234Z,91.99
2023-04-16T04:59:36.748Z,92.17
2023-04-16T05:00:38.372Z,92.00
2023-04-16T05:01:40.046Z,91.86
2023-04-16T05:02:41.776Z,91.74
2023-04-16T05:03:43.971Z,91.78
2023-04-16T05:04:45.882Z,91.82
2023-04-16T05:05:47.553Z,91.69
2023-04-16T05:06:50.427Z,91.54
2023-04-16T05:07:53.493Z,91.85
2023-04-16T05:08:54.931Z,91.80
2023-04-16T05:09:56.493Z,91.75
2023-04-16T05:10:57.934Z,91.64
2023-04-16T05:11:59.433Z,91.94
2023-04-16T05:13:01.111Z,91.76
2023-04-16T05:14:02.558Z,91.87
2023-04-16T05:15:04.473Z,91.82
2023-04-16T05:16:06.210Z,91.80
2023-04-16T05:17:08.094Z,91.81
2023-04-16T05:18:09.868Z,91.89
2023-04-16T05:19:13.199Z,92.03
2023-04-16T05:20:15.417Z,91.97
2023-04-16T05:21:16.940Z,91.60
2023-04-16T05:22:19.060Z,91.79
2023-04-16T05:23:24.272Z,92.10
2023-04-16T05:24:25.733Z,92.02
2023-04-16T05:25:27.141Z,91.97
2023-04-16T05:26:28.554Z,91.92
2023-04-16T05:27:32.076Z,91.92
2023-04-16T05:28:33.996Z,91.84
2023-04-16T05:29:35.619Z,91.66
2023-04-16T05:30:37.162Z,91.64
2023-04-16T05:31:38.633Z,91.64
2023-04-16T05:32:41.280Z,91.68
2023-04-16T05:33:42.811Z,91.52
2023-04-16T05:34:44.400Z,91.60
2023-04-16T05:35:45.853Z,91.51
2023-04-16T05:36:47.290Z,91.22
2023-04-16T05:37:48.672Z,91.26
2023-04-16T05:38:50.156Z,91.26
2023-04-16T05:39:51.642Z,91.19
2023-04-16T05:40:53.072Z,91.19
2023-04-16T05:41:54.646Z,91.20
2023-04-16T05:42:56.364Z,90.99
2023-04-16T05:43:58.092Z,91.03
2023-04-16T05:45:00.042Z,90.78
2023-04-16T05:46:01.619Z,91.03
2023-04-16T05:47:03.063Z,90.83
2023-04-16T05:48:04.623Z,90.92
2023-04-16T05:49:06.057Z,91.09
2023-04-16T05:50:07.700Z,91.25
2023-04-16T05:51:09.315Z,91.44
2023-04-16T05:52:10.764Z,91.13
2023-04-16T05:53:14.024Z,91.31
2023-04-16T05:54:15.726Z,91.27
2023-04-16T05:55:17.141Z,91.21
2023-04-16T05:56:20.939Z,91.14
2023-04-16T05:57:22.459Z,90.88
2023-04-16T05:58:26.500Z,91.06
2023-04-16T05:59:28.063Z,91.00
2023-04-16T06:00:32.572Z,91.05
2023-04-16T06:01:34.552Z,90.93
2023-04-16T06:02:37.517Z,91.13
2023-04-16T06:03:41.494Z,90.90
2023-04-16T06:04:43.771Z,90.72
2023-04-16T06:05:45.512Z,90.92
2023-04-16T06:06:46.978Z,90.83
2023-04-16T06:07:48.484Z,91.02
2023-04-16T06:08:50.227Z,91.07
2023-04-16T06:09:51.791Z,90.90
2023-04-16T06:10:53.621Z,90.65
2023-04-16T06:11:55.576Z,90.72
2023-04-16T06:12:57.037Z,90.83
2023-04-16T06:13:58.507Z,90.79
2023-04-16T06:15:00.353Z,90.63
2023-04-16T06:16:02.953Z,90.78
2023-04-16T06:17:04.555Z,90.77
2023-04-16T06:18:06.006Z,90.84
2023-04-16T06:19:09.724Z,90.85
2023-04-16T06:20:11.929Z,90.44
2023-04-16T06:21:13.509Z,90.36
2023-04-16T06:22:15.032Z,90.20
2023-04-16T06:23:16.669Z,90.26
2023-04-16T06:24:18.484Z,90.24
2023-04-16T06:25:19.960Z,90.28
2023-04-16T06:26:21.589Z,90.54
2023-04-16T06:27:23.123Z,90.50
2023-04-16T06:28:24.716Z,90.33
2023-04-16T06:29:37.041Z,90.37
2023-04-16T06:30:44.428Z,90.29
2023-04-16T06:31:48.635Z,90.26
2023-04-16T06:32:50.261Z,90.16
2023-04-16T06:33:51.711Z,89.93
2023-04-16T06:34:53.239Z,90.13
2023-04-16T06:35:55.854Z,90.03
2023-04-16T06:36:57.306Z,89.64
2023-04-16T06:37:58.854Z,89.66
2023-04-16T06:39:00.449Z,89.80
2023-04-16T06:40:02.148Z,89.64
2023-04-16T06:41:03.647Z,89.54
2023-04-16T06:42:05.398Z,89.75
2023-04-16T06:43:06.920Z,90.04
2023-04-16T06:44:08.488Z,90.30
2023-04-16T06:45:10.496Z,90.29
2023-04-16T06:46:12.056Z,89.87
2023-04-16T06:47:13.616Z,89.81
2023-04-16T06:48:16.662Z,89.89
2023-04-16T06:49:18.500Z,89.61
2023-04-16T06:50:20.472Z,89.57
2023-04-16T06:51:22.169Z,89.65
2023-04-16T06:52:23.654Z,89.57
2023-04-16T06:53:25.195Z,89.52
2023-04-16T06:54:26.693Z,89.70
2023-04-16T06:55:28.109Z,89.45
2023-04-16T06:56:29.707Z,89.80
2023-04-16T06:57:31.221Z,88.76
2023-04-16T06:58:32.958Z,88.30
2023-04-16T06:59:34.592Z,88.55
2023-04-16T07:00:36.105Z,88.87
2023-04-16T07:01:37.698Z,88.76
2023-04-16T07:02:41.541Z,89.23
2023-04-16T07:03:43.199Z,89.44
2023-04-16T07:04:44.970Z,89.08
2023-04-16T07:05:46.779Z,89.26
2023-04-16T07:06:48.179Z,89.25
2023-04-16T07:07:49.661Z,89.14
2023-04-16T07:08:51.117Z,88.94
2023-04-16T07:09:52.718Z,89.03
2023-04-16T07:10:54.557Z,89.01
2023-04-16T07:11:56.073Z,88.90
2023-04-16T07:12:57.618Z,88.84
2023-04-16T07:14:01.482Z,89.02
2023-04-16T07:15:03.013Z,89.06
2023-04-16T07:16:04.608Z,88.82
2023-04-16T07:17:06.090Z,88.97
2023-04-16T07:18:07.666Z,88.58
2023-04-16T07:19:09.711Z,88.03
2023-04-16T07:20:11.433Z,87.89
2023-04-16T07:21:12.945Z,87.89
2023-04-16T07:22:14.488Z,87.99
2023-04-16T07:23:15.984Z,88.13
2023-04-16T07:24:17.977Z,87.76
2023-04-16T07:25:19.449Z,88.09
2023-04-16T07:26:20.898Z,88.43
2023-04-16T07:27:22.328Z,88.13
2023-04-16T07:28:25.236Z,88.32
2023-04-16T07:29:26.640Z,87.91
2023-04-16T07:30:36.085Z,87.75
2023-04-16T07:31:38.516Z,87.86
2023-04-16T07:32:42.377Z,88.05
2023-04-16T07:33:43.884Z,87.96
2023-04-16T07:34:45.729Z,88.19
2023-04-16T07:35:47.550Z,88.34
2023-04-16T07:36:51.034Z,88.55
2023-04-16T07:37:52.636Z,88.32
2023-04-16T07:38:54.083Z,88.51
2023-04-16T07:39:57.589Z,88.59
2023-04-16T07:40:59.156Z,88.50
2023-04-16T07:42:00.786Z,88.41
2023-04-16T07:43:02.260Z,88.37
2023-04-16T07:44:03.860Z,88.05
2023-04-16T07:45:08.261Z,88.25
2023-04-16T07:46:12.027Z,88.03
2023-04-16T07:47:13.483Z,87.94
2023-04-16T07:48:14.937Z,87.96
2023-04-16T07:49:16.395Z,87.65
2023-04-16T07:50:21.861Z,87.62
2023-04-16T07:51:23.661Z,87.25
2023-04-16T07:52:25.473Z,87.04
2023-04-16T07:53:26.949Z,86.89
2023-04-16T07:54:29.184Z,86.74
2023-04-16T07:55:30.794Z,86.56
2023-04-16T07:56:32.474Z,86.72
2023-04-16T07:57:36.204Z,87.02
2023-04-16T07:58:37.699Z,87.03
2023-04-16T07:59:42.269Z,87.09
2023-04-16T08:00:43.724Z,87.03
2023-04-16T08:01:45.269Z,87.15
2023-04-16T08:02:49.009Z,86.83
2023-04-16T08:03:51.129Z,87.24
2023-04-16T08:04:58.180Z,87.17
2023-04-16T08:05:59.802Z,86.79
2023-04-16T08:07:01.233Z,86.64
2023-04-16T08:08:05.354Z,86.87
2023-04-16T08:09:06.882Z,86.88
2023-04-16T08:10:11.133Z,87.26
2023-04-16T08:11:12.605Z,86.93
2023-04-16T08:12:14.122Z,87.29
2023-04-16T08:13:15.772Z,87.46
2023-04-16T08:14:17.497Z,87.25
2023-04-16T08:15:19.418Z,87.20
2023-04-16T08:16:21.165Z,87.57
2023-04-16T08:17:22.868Z,87.28
2023-04-16T08:18:24.503Z,86.85
2023-04-16T08:19:25.942Z,86.67
2023-04-16T08:20:27.558Z,86.93
2023-04-16T08:21:29.389Z,86.99
2023-04-16T08:22:33.475Z,87.18
2023-04-16T08:23:35.063Z,86.92
2023-04-16T08:24:36.490Z,87.26
2023-04-16T08:25:37.987Z,86.80
2023-04-16T08:26:39.567Z,86.77
2023-04-16T08:27:41.131Z,87.14
2023-04-16T08:28:42.569Z,86.35
2023-04-16T08:29:44.604Z,86.42
2023-04-16T08:30:46.315Z,86.52
2023-04-16T08:31:47.899Z,86.46
2023-04-16T08:32:50.238Z,86.40
2023-04-16T08:33:54.353Z,86.36
2023-04-16T08:34:56.189Z,86.48
2023-04-16T08:35:57.662Z,86.27
2023-04-16T08:36:59.424Z,86.46
2023-04-16T08:38:02.371Z,86.34
2023-04-16T08:39:04.444Z,86.39
2023-04-16T08:40:06.333Z,86.35
2023-04-16T08:41:09.586Z,86.21
2023-04-16T08:42:30.674Z,86.10
2023-04-16T08:43:37.623Z,86.36
2023-04-16T08:44:42.457Z,86.35
2023-04-16T08:45:44.030Z,86.16
2023-04-16T08:46:46.509Z,86.18
2023-04-16T08:47:49.406Z,85.95
2023-04-16T08:48:54.820Z,86.02
2023-04-16T08:49:58.858Z,86.33
2023-04-16T08:51:01.659Z,86.16
2023-04-16T08:52:06.131Z,86.35
2023-04-16T08:53:10.580Z,85.54
2023-04-16T08:54:16.983Z,85.40
2023-04-16T08:55:19.800Z,85.88
2023-04-16T08:56:23.143Z,85.74
2023-04-16T08:57:27.028Z,85.72
2023-04-16T08:58:29.522Z,85.99
2023-04-16T08:59:31.126Z,86.01
2023-04-16T09:00:33.864Z,86.33
2023-04-16T09:01:35.765Z,85.83
2023-04-16T09:02:38.365Z,86.08
2023-04-16T09:03:41.549Z,86.13
2023-04-16T09:04:43.782Z,86.31
2023-04-16T09:05:46.398Z,85.93
2023-04-16T09:06:48.525Z,86.58
2023-04-16T09:07:50.519Z,86.60
2023-04-16T09:08:54.466Z,86.04
2023-04-16T09:09:57.989Z,85.96
2023-04-16T09:10:59.595Z,86.35
2023-04-16T09:12:01.207Z,85.98
2023-04-16T09:13:02.698Z,86.41
2023-04-16T09:14:04.750Z,86.91
2023-04-16T09:15:06.707Z,86.75
2023-04-16T09:16:09.506Z,86.44
2023-04-16T09:17:12.064Z,86.32
2023-04-16T09:18:15.783Z,86.63
2023-04-16T09:19:17.703Z,86.46
2023-04-16T09:20:19.890Z,86.39
2023-04-16T09:21:23.790Z,86.26
2023-04-16T09:22:25.815Z,86.34
2023-04-16T09:23:27.265Z,86.43
2023-04-16T09:24:28.712Z,86.73
2023-04-16T09:25:34.809Z,87.04
2023-04-16T09:26:41.144Z,86.69
2023-04-16T09:27:42.666Z,86.72
2023-04-16T09:28:46.373Z,86.88
2023-04-16T09:29:47.864Z,86.84
2023-04-16T09:30:49.560Z,87.23
2023-04-16T09:32:17.396Z,86.89
2023-04-16T09:33:23.352Z,87.38
2023-04-16T09:34:27.405Z,87.43
2023-04-16T09:35:44.461Z,87.32
2023-04-16T09:36:48.375Z,87.48
2023-04-16T09:37:58.732Z,87.41
2023-04-16T09:39:00.639Z,87.60
2023-04-16T09:40:03.770Z,87.15
2023-04-16T09:41:08.818Z,87.29
2023-04-16T09:42:12.639Z,87.49
2023-04-16T09:43:14.913Z,87.21
2023-04-16T09:44:16.365Z,87.10
2023-04-16T09:45:17.834Z,86.98
2023-04-16T09:46:19.517Z,86.79
2023-04-16T09:47:22.250Z,86.81
2023-04-16T09:48:30.742Z,86.90
2023-04-16T09:49:34.482Z,87.22
2023-04-16T09:50:35.985Z,87.33
2023-04-16T09:51:37.789Z,87.18
2023-04-16T09:52:39.330Z,87.31
2023-04-16T09:53:40.977Z,87.02
2023-04-16T09:54:54.621Z,86.65
2023-04-16T09:56:03.230Z,87.12
2023-04-16T09:57:05.861Z,86.73
2023-04-16T09:58:07.289Z,87.05
2023-04-16T09:59:09.799Z,87.18
2023-04-16T10:00:11.864Z,87.46
2023-04-16T10:01:13.501Z,87.28
2023-04-16T10:02:16.394Z,87.01
2023-04-16T10:03:18.306Z,87.07
2023-04-16T10:04:20.491Z,86.58
2023-04-16T10:05:22.042Z,86.23
2023-04-16T10:06:26.071Z,86.37
2023-04-16T10:07:33.469Z,86.08
2023-04-16T10:08:37.118Z,86.12
2023-04-16T10:09:39.029Z,85.90
2023-04-16T10:10:41.082Z,86.15
2023-04-16T10:11:45.911Z,86.68
2023-04-16T10:12:47.363Z,86.35
2023-04-16T10:13:49.468Z,86.58
2023-04-16T10:14:50.964Z,86.60
2023-04-16T10:15:52.508Z,86.62
2023-04-16T10:16:55.671Z,86.38
2023-04-16T10:17:58.072Z,86.64
2023-04-16T10:18:59.827Z,86.69
2023-04-16T10:20:02.082Z,86.79
2023-04-16T10:21:04.209Z,87.26
2023-04-16T10:22:05.880Z,87.47
2023-04-16T10:23:07.426Z,86.89
2023-04-16T10:24:09.910Z,86.75
2023-04-16T10:25:19.357Z,87.11
2023-04-16T10:26:32.024Z,86.61
2023-04-16T10:27:33.780Z,87.01
2023-04-16T10:28:36.311Z,86.85
2023-04-16T10:29:37.956Z,86.38
2023-04-16T10:30:39.919Z,86.22
2023-04-16T10:31:41.809Z,86.25
2023-04-16T10:32:44.658Z,86.69
2023-04-16T10:33:46.671Z,87.01
2023-04-16T10:34:48.176Z,87.09
2023-04-16T10:36:04.703Z,86.63
2023-04-16T10:37:09.032Z,86.15
2023-04-16T10:38:32.614Z,85.77
2023-04-16T10:39:37.550Z,85.28
2023-04-16T10:40:39.231Z,85.36
2023-04-16T10:41:42.745Z,85.70
2023-04-16T10:42:53.432Z,85.55
2023-04-16T10:44:05.755Z,85.19
2023-04-16T10:45:10.791Z,85.20
2023-04-16T10:46:19.943Z,85.71
2023-04-16T10:47:24.557Z,85.80
2023-04-16T10:48:28.995Z,86.12
2023-04-16T10:49:35.689Z,86.29
2023-04-16T10:50:37.553Z,86.89
2023-04-16T10:51:39.117Z,86.80
2023-04-16T10:52:40.654Z,86.85
2023-04-16T10:53:42.187Z,86.80
2023-04-16T10:54:43.794Z,86.37
2023-04-16T10:56:12.662Z,86.26
2023-04-16T10:57:18.331Z,86.21
2023-04-16T10:58:35.216Z,86.72
2023-04-16T10:59:37.386Z,86.62
2023-04-16T11:00:51.888Z,86.39
2023-04-16T11:01:58.224Z,86.24
2023-04-16T11:03:02.102Z,86.11
2023-04-16T11:04:22.080Z,86.59
2023-04-16T11:05:24.560Z,85.85
2023-04-16T11:06:28.554Z,86.12
2023-04-16T11:07:34.057Z,86.43
2023-04-16T11:08:51.224Z,86.58
2023-04-16T11:10:00.231Z,86.57
2023-04-16T11:11:07.882Z,86.68
2023-04-16T11:12:13.132Z,86.57
2023-04-16T11:13:15.828Z,86.65
2023-04-16T11:14:17.369Z,86.54
2023-04-16T11:15:23.416Z,86.11
2023-04-16T11:16:25.670Z,86.25
2023-04-16T11:17:38.976Z,86.61
2023-04-16T11:18:51.146Z,86.75
2023-04-16T11:19:53.463Z,86.94
2023-04-16T11:20:55.459Z,86.95
2023-04-16T11:21:56.978Z,86.29
2023-04-16T11:22:58.462Z,86.34
2023-04-16T11:24:00.150Z,86.46
2023-04-16T11:25:01.754Z,86.65
2023-04-16T11:26:03.466Z,86.77
2023-04-16T11:27:05.444Z,86.12
2023-04-16T11:28:06.900Z,85.91
2023-04-16T11:29:13.918Z,85.88
2023-04-16T11:30:15.621Z,86.06
2023-04-16T11:31:17.182Z,86.27
2023-04-16T11:32:24.581Z,86.16
2023-04-16T11:33:26.362Z,86.46
2023-04-16T11:34:30.816Z,86.02
2023-04-16T11:35:32.497Z,86.21
2023-04-16T11:36:44.118Z,86.36
2023-04-16T11:37:46.941Z,86.19
2023-04-16T11:38:48.752Z,86.20
2023-04-16T11:39:53.319Z,86.13
2023-04-16T11:40:55.198Z,86.20
2023-04-16T11:41:56.783Z,86.14
2023-04-16T11:43:04.976Z,85.80
2023-04-16T11:44:18.719Z,85.75
2023-04-16T11:45:20.226Z,84.58
2023-04-16T11:46:27.562Z,84.40
2023-04-16T11:47:31.894Z,83.67
2023-04-16T11:48:53.010Z,83.84
2023-04-16T11:49:54.490Z,83.64
2023-04-16T11:50:56.766Z,83.33
2023-04-16T11:51:58.650Z,83.38
2023-04-16T11:53:04.652Z,83.95
2023-04-16T11:54:06.113Z,84.03
2023-04-16T11:55:07.709Z,83.72
2023-04-16T11:56:09.298Z,83.43
2023-04-16T11:57:11.362Z,83.14
2023-04-16T11:58:13.155Z,82.95
2023-04-16T11:59:18.971Z,83.76
2023-04-16T12:00:23.708Z,83.39
2023-04-16T12:01:26.684Z,83.48
2023-04-16T12:02:42.577Z,82.85
2023-04-16T12:03:49.876Z,83.13
2023-04-16T12:04:51.816Z,83.06
2023-04-16T12:05:53.346Z,83.68
2023-04-16T12:07:27.439Z,83.45
2023-04-16T12:08:32.882Z,83.13
2023-04-16T12:09:37.128Z,83.03
2023-04-16T12:10:56.306Z,82.87
2023-04-16T12:11:57.936Z,83.25
2023-04-16T12:13:11.763Z,83.07
2023-04-16T12:14:13.414Z,83.05
2023-04-16T12:15:17.202Z,82.98
2023-04-16T12:16:19.934Z,83.27
2023-04-16T12:17:21.700Z,83.08
2023-04-16T12:18:24.847Z,82.94
2023-04-16T12:19:26.461Z,83.23
2023-04-16T12:20:41.293Z,82.97
2023-04-16T12:21:46.734Z,83.47
2023-04-16T12:22:49.786Z,83.61
2023-04-16T12:23:53.536Z,83.86
2023-04-16T12:24:58.717Z,83.28
2023-04-16T12:26:10.894Z,83.48
2023-04-16T12:27:12.970Z,83.67
2023-04-16T12:28:16.468Z,83.60
2023-04-16T12:29:27.474Z,83.65
2023-04-16T12:30:32.623Z,83.13
2023-04-16T12:31:38.050Z,82.81
2023-04-16T12:32:40.622Z,82.09
2023-04-16T12:33:42.463Z,82.02
2023-04-16T12:34:51.571Z,82.24
2023-04-16T12:35:53.072Z,82.99
2023-04-16T12:37:06.404Z,83.40
2023-04-16T12:38:07.829Z,82.44
2023-04-16T12:39:11.000Z,82.70
2023-04-16T12:40:12.577Z,82.32
2023-04-16T12:41:16.157Z,82.68
2023-04-16T12:42:17.571Z,83.08
2023-04-16T12:43:21.547Z,83.10
2023-04-16T12:44:22.997Z,82.95
2023-04-16T12:45:27.080Z,82.33
2023-04-16T12:46:28.661Z,82.56
2023-04-16T12:47:30.586Z,82.87
2023-04-16T12:48:32.576Z,83.04
2023-04-16T12:49:36.335Z,83.77
2023-04-16T12:50:42.224Z,83.27
2023-04-16T12:51:46.835Z,82.89
2023-04-16T12:52:48.626Z,83.02
2023-04-16T12:53:50.480Z,83.62
2023-04-16T12:54:52.290Z,83.23
2023-04-16T12:55:53.949Z,83.29
2023-04-16T12:56:55.746Z,83.50
2023-04-16T12:57:57.219Z,83.60
2023-04-16T12:58:58.997Z,83.84
2023-04-16T13:00:00.930Z,83.59
2023-04-16T13:01:04.749Z,83.20
2023-04-16T13:02:07.327Z,83.28
2023-04-16T13:03:09.015Z,83.78
2023-04-16T13:04:10.779Z,83.96
2023-04-16T13:05:14.525Z,83.71
2023-04-16T13:06:16.506Z,83.42
2023-04-16T13:07:19.939Z,82.59
2023-04-16T13:08:21.391Z,82.45
2023-04-16T13:09:23.038Z,83.02
2023-04-16T13:10:28.020Z,82.54
2023-04-16T13:11:29.646Z,82.55
2023-04-16T13:12:32.633Z,82.35
2023-04-16T13:13:34.363Z,82.78
2023-04-16T13:14:35.935Z,83.06
2023-04-16T13:15:40.264Z,82.62
2023-04-16T13:16:42.022Z,82.68
2023-04-16T13:17:43.596Z,83.14
2023-04-16T13:18:45.554Z,83.30
2023-04-16T13:19:52.336Z,83.12
2023-04-16T13:20:55.984Z,82.93
2023-04-16T13:22:00.868Z,82.56
2023-04-16T13:23:04.853Z,82.68
2023-04-16T13:24:06.526Z,82.80
2023-04-16T13:25:08.564Z,82.65
2023-04-16T13:26:09.965Z,82.96
2023-04-16T13:27:12.554Z,82.79
2023-04-16T13:28:14.383Z,82.58
2023-04-16T13:29:15.970Z,82.41
2023-04-16T13:30:17.499Z,82.48
2023-04-16T13:31:32.988Z,82.75
2023-04-16T13:32:50.536Z,81.95
2023-04-16T13:33:52.233Z,81.81